sensor_id;sensor_type;location;lat;lon;timestamp;P1;durP1;ratioP1;P2;durP2;ratioP2
48935;SDS011;34745;52.276;10.528;2022-09-21T00:01:58;15.40;;;7.87;;
48935;SDS011;34745;52.276;10.528;2022-09-21T00:04:25;12.73;;;8.10;;
48935;SDS011;34745;52.276;10.528;2022-09-21T00:06:52;12.17;;;8.13;;
48935;SDS011;34745;52.276;10.528;2022-09-21T00:09:19;11.70;;;7.73;;
48935;SDS011;34745;52.276;10.528;2022-09-21T00:11:47;9.47;;;7.67;;
48935;SDS011;34745;52.276;10.528;2022-09-21T00:14:15;14.10;;;7.90;;
48935;SDS011;34745;52.276;10.528;2022-09-21T00:16:42;14.37;;;7.70;;
48935;SDS011;34745;52.276;10.528;2022-09-21T00:19:09;12.13;;;7.83;;
48935;SDS011;34745;52.276;10.528;2022-09-21T00:21:37;11.20;;;7.47;;
48935;SDS011;34745;52.276;10.528;2022-09-21T00:24:04;12.43;;;7.60;;
48935;SDS011;34745;52.276;10.528;2022-09-21T00:26:32;12.70;;;8.07;;
48935;SDS011;34745;52.276;10.528;2022-09-21T00:29:01;14.93;;;8.20;;
48935;SDS011;34745;52.276;10.528;2022-09-21T00:31:29;9.50;;;8.03;;
48935;SDS011;34745;52.276;10.528;2022-09-21T00:33:57;12.87;;;8.17;;
48935;SDS011;34745;52.276;10.528;2022-09-21T00:36:25;9.77;;;7.33;;
48935;SDS011;34745;52.276;10.528;2022-09-21T00:38:54;12.73;;;7.80;;
48935;SDS011;34745;52.276;10.528;2022-09-21T00:41:22;10.03;;;7.57;;
48935;SDS011;34745;52.276;10.528;2022-09-21T00:46:56;12.43;;;7.10;;
48935;SDS011;34745;52.276;10.528;2022-09-21T00:49:26;16.20;;;7.83;;
48935;SDS011;34745;52.276;10.528;2022-09-21T00:51:55;10.87;;;8.00;;
48935;SDS011;34745;52.276;10.528;2022-09-21T00:54:25;18.87;;;7.73;;
48935;SDS011;34745;52.276;10.528;2022-09-21T00:56:54;9.17;;;7.53;;
48935;SDS011;34745;52.276;10.528;2022-09-21T00:59:25;12.97;;;8.00;;
48935;SDS011;34745;52.276;10.528;2022-09-21T01:01:57;12.20;;;7.90;;
48935;SDS011;34745;52.276;10.528;2022-09-21T01:04:25;13.83;;;7.50;;
48935;SDS011;34745;52.276;10.528;2022-09-21T01:06:53;14.93;;;8.40;;
48935;SDS011;34745;52.276;10.528;2022-09-21T01:09:22;12.07;;;8.17;;
48935;SDS011;34745;52.276;10.528;2022-09-21T01:11:52;13.17;;;8.43;;
48935;SDS011;34745;52.276;10.528;2022-09-21T01:14:29;11.80;;;8.63;;
48935;SDS011;34745;52.276;10.528;2022-09-21T01:17:11;10.70;;;7.90;;
48935;SDS011;34745;52.276;10.528;2022-09-21T01:19:50;17.70;;;8.00;;
48935;SDS011;34745;52.276;10.528;2022-09-21T01:22:42;10.80;;;7.53;;
48935;SDS011;34745;52.276;10.528;2022-09-21T01:25:22;14.07;;;8.17;;
48935;SDS011;34745;52.276;10.528;2022-09-21T01:28:10;13.70;;;7.97;;
48935;SDS011;34745;52.276;10.528;2022-09-21T01:30:48;11.07;;;8.43;;
48935;SDS011;34745;52.276;10.528;2022-09-21T01:33:20;11.93;;;8.43;;
48935;SDS011;34745;52.276;10.528;2022-09-21T01:35:52;12.70;;;8.07;;
48935;SDS011;34745;52.276;10.528;2022-09-21T01:38:23;12.77;;;8.27;;
48935;SDS011;34745;52.276;10.528;2022-09-21T01:40:52;9.90;;;7.97;;
48935;SDS011;34745;52.276;10.528;2022-09-21T01:43:28;9.50;;;8.07;;
48935;SDS011;34745;52.276;10.528;2022-09-21T01:46:01;11.90;;;8.30;;
48935;SDS011;34745;52.276;10.528;2022-09-21T01:48:32;11.90;;;8.10;;
48935;SDS011;34745;52.276;10.528;2022-09-21T01:51:03;16.03;;;8.80;;
48935;SDS011;34745;52.276;10.528;2022-09-21T01:53:36;11.67;;;8.27;;
48935;SDS011;34745;52.276;10.528;2022-09-21T01:56:08;13.90;;;8.50;;
48935;SDS011;34745;52.276;10.528;2022-09-21T01:58:40;10.93;;;8.17;;
48935;SDS011;34745;52.276;10.528;2022-09-21T02:01:13;15.43;;;8.23;;
48935;SDS011;34745;52.276;10.528;2022-09-21T02:03:44;17.03;;;8.70;;
48935;SDS011;34745;52.276;10.528;2022-09-21T02:06:15;12.97;;;8.73;;
48935;SDS011;34745;52.276;10.528;2022-09-21T02:08:43;13.17;;;8.60;;
48935;SDS011;34745;52.276;10.528;2022-09-21T02:11:11;15.20;;;9.17;;
48935;SDS011;34745;52.276;10.528;2022-09-21T02:13:40;15.47;;;9.77;;
48935;SDS011;34745;52.276;10.528;2022-09-21T02:16:19;13.50;;;9.23;;
48935;SDS011;34745;52.276;10.528;2022-09-21T02:19:02;11.83;;;9.10;;
48935;SDS011;34745;52.276;10.528;2022-09-21T02:21:39;15.73;;;9.70;;
48935;SDS011;34745;52.276;10.528;2022-09-21T02:24:19;14.30;;;9.00;;
48935;SDS011;34745;52.276;10.528;2022-09-21T02:26:58;12.60;;;9.13;;
48935;SDS011;34745;52.276;10.528;2022-09-21T02:29:31;12.43;;;8.77;;
48935;SDS011;34745;52.276;10.528;2022-09-21T02:32:08;10.23;;;8.47;;
48935;SDS011;34745;52.276;10.528;2022-09-21T02:34:42;15.97;;;9.13;;
48935;SDS011;34745;52.276;10.528;2022-09-21T02:37:16;10.97;;;8.93;;
48935;SDS011;34745;52.276;10.528;2022-09-21T02:39:50;17.00;;;9.33;;
48935;SDS011;34745;52.276;10.528;2022-09-21T02:42:22;15.07;;;9.70;;
48935;SDS011;34745;52.276;10.528;2022-09-21T02:44:54;15.37;;;8.70;;
48935;SDS011;34745;52.276;10.528;2022-09-21T02:47:29;13.20;;;8.60;;
48935;SDS011;34745;52.276;10.528;2022-09-21T02:50:02;13.07;;;9.10;;
48935;SDS011;34745;52.276;10.528;2022-09-21T02:52:31;14.93;;;9.20;;
48935;SDS011;34745;52.276;10.528;2022-09-21T02:55:00;13.73;;;8.80;;
48935;SDS011;34745;52.276;10.528;2022-09-21T02:57:30;12.97;;;8.97;;
48935;SDS011;34745;52.276;10.528;2022-09-21T02:59:57;17.23;;;9.83;;
48935;SDS011;34745;52.276;10.528;2022-09-21T03:02:35;12.90;;;9.67;;
48935;SDS011;34745;52.276;10.528;2022-09-21T03:05:03;15.63;;;9.30;;
48935;SDS011;34745;52.276;10.528;2022-09-21T03:07:31;12.93;;;9.13;;
48935;SDS011;34745;52.276;10.528;2022-09-21T03:09:58;13.03;;;9.10;;
48935;SDS011;34745;52.276;10.528;2022-09-21T03:12:25;13.20;;;9.47;;
48935;SDS011;34745;52.276;10.528;2022-09-21T03:14:52;12.00;;;8.97;;
48935;SDS011;34745;52.276;10.528;2022-09-21T03:17:19;12.77;;;9.03;;
48935;SDS011;34745;52.276;10.528;2022-09-21T03:19:47;12.07;;;8.60;;
48935;SDS011;34745;52.276;10.528;2022-09-21T03:22:15;15.37;;;9.60;;
48935;SDS011;34745;52.276;10.528;2022-09-21T03:24:43;14.27;;;9.60;;
48935;SDS011;34745;52.276;10.528;2022-09-21T03:27:13;15.23;;;9.33;;
48935;SDS011;34745;52.276;10.528;2022-09-21T03:29:40;16.13;;;9.17;;
48935;SDS011;34745;52.276;10.528;2022-09-21T03:32:07;14.17;;;9.07;;
48935;SDS011;34745;52.276;10.528;2022-09-21T03:34:34;13.23;;;9.80;;
48935;SDS011;34745;52.276;10.528;2022-09-21T03:37:04;11.87;;;9.17;;
48935;SDS011;34745;52.276;10.528;2022-09-21T03:39:32;12.40;;;9.50;;
48935;SDS011;34745;52.276;10.528;2022-09-21T03:42:00;21.23;;;10.50;;
48935;SDS011;34745;52.276;10.528;2022-09-21T03:44:27;16.23;;;9.93;;
48935;SDS011;34745;52.276;10.528;2022-09-21T03:46:54;21.30;;;9.70;;
48935;SDS011;34745;52.276;10.528;2022-09-21T03:49:23;17.83;;;9.80;;
48935;SDS011;34745;52.276;10.528;2022-09-21T03:51:50;15.30;;;9.67;;
48935;SDS011;34745;52.276;10.528;2022-09-21T03:54:18;18.53;;;9.77;;
48935;SDS011;34745;52.276;10.528;2022-09-21T03:56:46;15.97;;;9.53;;
48935;SDS011;34745;52.276;10.528;2022-09-21T03:59:13;19.77;;;9.80;;
48935;SDS011;34745;52.276;10.528;2022-09-21T04:01:41;14.13;;;9.40;;
48935;SDS011;34745;52.276;10.528;2022-09-21T04:04:08;19.40;;;10.07;;
48935;SDS011;34745;52.276;10.528;2022-09-21T04:06:36;14.87;;;9.93;;
48935;SDS011;34745;52.276;10.528;2022-09-21T04:09:02;14.57;;;10.13;;
48935;SDS011;34745;52.276;10.528;2022-09-21T04:11:31;16.07;;;9.47;;
48935;SDS011;34745;52.276;10.528;2022-09-21T04:13:58;13.20;;;10.20;;
48935;SDS011;34745;52.276;10.528;2022-09-21T04:16:25;13.90;;;9.63;;
48935;SDS011;34745;52.276;10.528;2022-09-21T04:18:53;17.70;;;10.20;;
48935;SDS011;34745;52.276;10.528;2022-09-21T04:21:21;19.13;;;10.27;;
48935;SDS011;34745;52.276;10.528;2022-09-21T04:23:48;18.20;;;10.67;;
48935;SDS011;34745;52.276;10.528;2022-09-21T04:26:19;14.03;;;11.00;;
48935;SDS011;34745;52.276;10.528;2022-09-21T04:28:49;14.30;;;10.13;;
48935;SDS011;34745;52.276;10.528;2022-09-21T04:31:17;17.23;;;10.23;;
48935;SDS011;34745;52.276;10.528;2022-09-21T04:33:46;18.67;;;10.13;;
48935;SDS011;34745;52.276;10.528;2022-09-21T04:36:14;14.03;;;10.30;;
48935;SDS011;34745;52.276;10.528;2022-09-21T04:38:41;18.67;;;10.50;;
48935;SDS011;34745;52.276;10.528;2022-09-21T04:41:08;19.60;;;10.60;;
48935;SDS011;34745;52.276;10.528;2022-09-21T04:43:35;18.80;;;10.83;;
48935;SDS011;34745;52.276;10.528;2022-09-21T04:46:04;19.47;;;10.83;;
48935;SDS011;34745;52.276;10.528;2022-09-21T04:48:32;17.20;;;10.67;;
48935;SDS011;34745;52.276;10.528;2022-09-21T04:50:59;14.90;;;11.10;;
48935;SDS011;34745;52.276;10.528;2022-09-21T04:53:26;16.70;;;10.83;;
48935;SDS011;34745;52.276;10.528;2022-09-21T04:55:54;17.83;;;10.87;;
48935;SDS011;34745;52.276;10.528;2022-09-21T04:58:21;19.60;;;11.30;;
48935;SDS011;34745;52.276;10.528;2022-09-21T05:00:50;16.47;;;11.37;;
48935;SDS011;34745;52.276;10.528;2022-09-21T05:03:18;18.20;;;10.60;;
48935;SDS011;34745;52.276;10.528;2022-09-21T05:05:46;18.73;;;12.03;;
48935;SDS011;34745;52.276;10.528;2022-09-21T05:08:13;21.07;;;12.07;;
48935;SDS011;34745;52.276;10.528;2022-09-21T05:10:41;18.77;;;11.63;;
48935;SDS011;34745;52.276;10.528;2022-09-21T05:13:09;19.40;;;10.97;;
48935;SDS011;34745;52.276;10.528;2022-09-21T05:15:36;18.90;;;11.27;;
48935;SDS011;34745;52.276;10.528;2022-09-21T05:18:04;20.87;;;11.87;;
48935;SDS011;34745;52.276;10.528;2022-09-21T05:20:33;15.33;;;11.00;;
48935;SDS011;34745;52.276;10.528;2022-09-21T05:23:00;21.63;;;10.93;;
48935;SDS011;34745;52.276;10.528;2022-09-21T05:25:27;16.77;;;11.10;;
48935;SDS011;34745;52.276;10.528;2022-09-21T05:27:54;17.60;;;11.20;;
48935;SDS011;34745;52.276;10.528;2022-09-21T05:30:22;14.13;;;10.53;;
48935;SDS011;34745;52.276;10.528;2022-09-21T05:32:53;17.97;;;11.20;;
48935;SDS011;34745;52.276;10.528;2022-09-21T05:35:28;20.47;;;11.70;;
48935;SDS011;34745;52.276;10.528;2022-09-21T05:38:02;18.20;;;11.10;;
48935;SDS011;34745;52.276;10.528;2022-09-21T05:40:35;12.13;;;10.67;;
48935;SDS011;34745;52.276;10.528;2022-09-21T05:43:03;23.17;;;11.47;;
48935;SDS011;34745;52.276;10.528;2022-09-21T05:45:30;17.37;;;11.43;;
48935;SDS011;34745;52.276;10.528;2022-09-21T05:48:01;20.73;;;11.73;;
48935;SDS011;34745;52.276;10.528;2022-09-21T05:50:42;22.90;;;12.20;;
48935;SDS011;34745;52.276;10.528;2022-09-21T05:53:23;19.13;;;11.77;;
48935;SDS011;34745;52.276;10.528;2022-09-21T05:56:03;19.37;;;12.40;;
48935;SDS011;34745;52.276;10.528;2022-09-21T05:58:38;18.27;;;12.57;;
48935;SDS011;34745;52.276;10.528;2022-09-21T06:01:14;17.63;;;11.87;;
48935;SDS011;34745;52.276;10.528;2022-09-21T06:03:48;22.20;;;12.20;;
48935;SDS011;34745;52.276;10.528;2022-09-21T06:06:17;21.20;;;12.57;;
48935;SDS011;34745;52.276;10.528;2022-09-21T06:08:44;23.17;;;11.83;;
48935;SDS011;34745;52.276;10.528;2022-09-21T06:11:12;20.63;;;11.97;;
48935;SDS011;34745;52.276;10.528;2022-09-21T06:13:39;21.00;;;11.23;;
48935;SDS011;34745;52.276;10.528;2022-09-21T06:16:07;17.90;;;11.70;;
48935;SDS011;34745;52.276;10.528;2022-09-21T06:18:35;18.23;;;11.83;;
48935;SDS011;34745;52.276;10.528;2022-09-21T06:21:03;22.40;;;12.23;;
48935;SDS011;34745;52.276;10.528;2022-09-21T06:23:32;19.33;;;11.73;;
48935;SDS011;34745;52.276;10.528;2022-09-21T06:25:59;15.40;;;11.47;;
48935;SDS011;34745;52.276;10.528;2022-09-21T06:28:26;24.67;;;11.87;;
48935;SDS011;34745;52.276;10.528;2022-09-21T06:30:55;20.27;;;11.70;;
48935;SDS011;34745;52.276;10.528;2022-09-21T06:33:23;23.13;;;11.80;;
48935;SDS011;34745;52.276;10.528;2022-09-21T06:35:51;21.60;;;12.10;;
48935;SDS011;34745;52.276;10.528;2022-09-21T06:38:19;22.07;;;11.93;;
48935;SDS011;34745;52.276;10.528;2022-09-21T06:40:48;19.83;;;12.27;;
48935;SDS011;34745;52.276;10.528;2022-09-21T06:43:16;19.00;;;12.60;;
48935;SDS011;34745;52.276;10.528;2022-09-21T06:45:43;16.87;;;11.83;;
48935;SDS011;34745;52.276;10.528;2022-09-21T06:48:18;17.80;;;11.97;;
48935;SDS011;34745;52.276;10.528;2022-09-21T06:50:45;25.93;;;12.53;;
48935;SDS011;34745;52.276;10.528;2022-09-21T06:53:12;20.30;;;12.50;;
48935;SDS011;34745;52.276;10.528;2022-09-21T06:55:40;21.00;;;12.33;;
48935;SDS011;34745;52.276;10.528;2022-09-21T06:58:08;23.73;;;12.67;;
48935;SDS011;34745;52.276;10.528;2022-09-21T07:00:38;19.97;;;12.43;;
48935;SDS011;34745;52.276;10.528;2022-09-21T07:03:05;27.07;;;13.30;;
48935;SDS011;34745;52.276;10.528;2022-09-21T07:05:35;23.50;;;13.47;;
48935;SDS011;34745;52.276;10.528;2022-09-21T07:08:02;23.57;;;11.53;;
48935;SDS011;34745;52.276;10.528;2022-09-21T07:10:29;29.20;;;12.73;;
48935;SDS011;34745;52.276;10.528;2022-09-21T07:13:00;21.60;;;12.73;;
48935;SDS011;34745;52.276;10.528;2022-09-21T07:15:30;22.63;;;12.63;;
48935;SDS011;34745;52.276;10.528;2022-09-21T07:17:57;22.20;;;12.17;;
48935;SDS011;34745;52.276;10.528;2022-09-21T07:20:31;23.73;;;11.67;;
48935;SDS011;34745;52.276;10.528;2022-09-21T07:22:58;16.60;;;11.77;;
48935;SDS011;34745;52.276;10.528;2022-09-21T07:25:25;20.07;;;11.83;;
48935;SDS011;34745;52.276;10.528;2022-09-21T07:27:52;28.03;;;12.33;;
48935;SDS011;34745;52.276;10.528;2022-09-21T07:30:19;18.63;;;11.20;;
48935;SDS011;34745;52.276;10.528;2022-09-21T07:32:48;20.43;;;12.03;;
48935;SDS011;34745;52.276;10.528;2022-09-21T07:35:15;26.60;;;15.30;;
48935;SDS011;34745;52.276;10.528;2022-09-21T07:37:41;15.73;;;10.67;;
48935;SDS011;34745;52.276;10.528;2022-09-21T07:40:09;18.97;;;11.33;;
48935;SDS011;34745;52.276;10.528;2022-09-21T07:42:36;20.77;;;11.67;;
48935;SDS011;34745;52.276;10.528;2022-09-21T07:45:03;16.70;;;11.27;;
48935;SDS011;34745;52.276;10.528;2022-09-21T07:47:30;20.27;;;11.00;;
48935;SDS011;34745;52.276;10.528;2022-09-21T07:49:59;17.73;;;10.07;;
48935;SDS011;34745;52.276;10.528;2022-09-21T07:52:26;21.90;;;11.13;;
48935;SDS011;34745;52.276;10.528;2022-09-21T07:54:53;21.63;;;10.17;;
48935;SDS011;34745;52.276;10.528;2022-09-21T07:57:20;16.97;;;10.87;;
48935;SDS011;34745;52.276;10.528;2022-09-21T08:00:06;19.07;;;11.03;;
48935;SDS011;34745;52.276;10.528;2022-09-21T08:02:34;17.00;;;9.93;;
48935;SDS011;34745;52.276;10.528;2022-09-21T08:05:03;19.93;;;10.60;;
48935;SDS011;34745;52.276;10.528;2022-09-21T08:07:30;18.53;;;10.03;;
48935;SDS011;34745;52.276;10.528;2022-09-21T08:09:57;25.90;;;10.93;;
48935;SDS011;34745;52.276;10.528;2022-09-21T08:12:25;21.67;;;9.73;;
48935;SDS011;34745;52.276;10.528;2022-09-21T08:14:52;19.47;;;9.77;;
48935;SDS011;34745;52.276;10.528;2022-09-21T08:17:19;20.57;;;9.33;;
48935;SDS011;34745;52.276;10.528;2022-09-21T08:19:46;23.30;;;9.20;;
48935;SDS011;34745;52.276;10.528;2022-09-21T08:22:14;18.60;;;8.23;;
48935;SDS011;34745;52.276;10.528;2022-09-21T08:24:41;16.03;;;8.70;;
48935;SDS011;34745;52.276;10.528;2022-09-21T08:27:09;15.83;;;8.27;;
48935;SDS011;34745;52.276;10.528;2022-09-21T08:29:36;15.53;;;8.17;;
48935;SDS011;34745;52.276;10.528;2022-09-21T08:32:04;17.00;;;8.10;;
48935;SDS011;34745;52.276;10.528;2022-09-21T08:34:30;20.73;;;8.33;;
48935;SDS011;34745;52.276;10.528;2022-09-21T08:36:58;16.90;;;8.17;;
48935;SDS011;34745;52.276;10.528;2022-09-21T08:39:26;19.77;;;8.50;;
48935;SDS011;34745;52.276;10.528;2022-09-21T08:41:58;17.67;;;8.57;;
48935;SDS011;34745;52.276;10.528;2022-09-21T08:44:32;16.23;;;9.47;;
48935;SDS011;34745;52.276;10.528;2022-09-21T08:47:07;20.07;;;8.90;;
48935;SDS011;34745;52.276;10.528;2022-09-21T08:49:39;22.27;;;8.67;;
48935;SDS011;34745;52.276;10.528;2022-09-21T08:52:10;18.07;;;8.23;;
48935;SDS011;34745;52.276;10.528;2022-09-21T08:54:45;17.77;;;8.50;;
48935;SDS011;34745;52.276;10.528;2022-09-21T08:57:17;23.50;;;8.90;;
48935;SDS011;34745;52.276;10.528;2022-09-21T08:59:45;15.73;;;7.97;;
48935;SDS011;34745;52.276;10.528;2022-09-21T09:02:23;15.83;;;7.87;;
48935;SDS011;34745;52.276;10.528;2022-09-21T09:05:15;18.37;;;7.83;;
48935;SDS011;34745;52.276;10.528;2022-09-21T09:07:58;18.93;;;7.30;;
48935;SDS011;34745;52.276;10.528;2022-09-21T09:10:40;16.20;;;7.50;;
48935;SDS011;34745;52.276;10.528;2022-09-21T09:13:25;10.97;;;7.10;;
48935;SDS011;34745;52.276;10.528;2022-09-21T09:16:05;19.87;;;8.27;;
48935;SDS011;34745;52.276;10.528;2022-09-21T09:18:42;16.10;;;8.53;;
48935;SDS011;34745;52.276;10.528;2022-09-21T09:21:15;17.90;;;7.07;;
48935;SDS011;34745;52.276;10.528;2022-09-21T09:23:56;17.43;;;7.53;;
48935;SDS011;34745;52.276;10.528;2022-09-21T09:26:31;15.10;;;7.23;;
48935;SDS011;34745;52.276;10.528;2022-09-21T09:29:01;15.60;;;7.23;;
48935;SDS011;34745;52.276;10.528;2022-09-21T09:31:38;15.47;;;7.57;;
48935;SDS011;34745;52.276;10.528;2022-09-21T09:34:08;11.97;;;5.77;;
48935;SDS011;34745;52.276;10.528;2022-09-21T09:36:38;15.77;;;7.00;;
48935;SDS011;34745;52.276;10.528;2022-09-21T09:39:26;20.60;;;6.20;;
48935;SDS011;34745;52.276;10.528;2022-09-21T09:41:59;9.57;;;5.27;;
48935;SDS011;34745;52.276;10.528;2022-09-21T09:44:45;15.23;;;5.97;;
48935;SDS011;34745;52.276;10.528;2022-09-21T09:47:29;14.03;;;5.13;;
48935;SDS011;34745;52.276;10.528;2022-09-21T09:50:08;14.63;;;5.80;;
48935;SDS011;34745;52.276;10.528;2022-09-21T09:52:38;15.20;;;5.70;;
48935;SDS011;34745;52.276;10.528;2022-09-21T09:55:10;12.87;;;5.47;;
48935;SDS011;34745;52.276;10.528;2022-09-21T09:57:43;15.87;;;5.47;;
48935;SDS011;34745;52.276;10.528;2022-09-21T10:00:12;13.43;;;5.93;;
48935;SDS011;34745;52.276;10.528;2022-09-21T10:02:47;12.23;;;4.93;;
48935;SDS011;34745;52.276;10.528;2022-09-21T10:05:19;12.03;;;4.63;;
48935;SDS011;34745;52.276;10.528;2022-09-21T10:07:48;15.37;;;5.13;;
48935;SDS011;34745;52.276;10.528;2022-09-21T10:10:25;15.53;;;4.63;;
48935;SDS011;34745;52.276;10.528;2022-09-21T10:13:04;13.53;;;4.47;;
48935;SDS011;34745;52.276;10.528;2022-09-21T10:15:37;17.07;;;4.70;;
48935;SDS011;34745;52.276;10.528;2022-09-21T10:18:16;10.57;;;3.90;;
48935;SDS011;34745;52.276;10.528;2022-09-21T10:23:37;12.93;;;4.40;;
48935;SDS011;34745;52.276;10.528;2022-09-21T10:26:06;10.87;;;3.90;;
48935;SDS011;34745;52.276;10.528;2022-09-21T10:28:36;14.00;;;4.60;;
48935;SDS011;34745;52.276;10.528;2022-09-21T10:31:21;15.10;;;4.53;;
48935;SDS011;34745;52.276;10.528;2022-09-21T10:33:50;17.07;;;4.40;;
48935;SDS011;34745;52.276;10.528;2022-09-21T10:36:27;10.00;;;3.80;;
48935;SDS011;34745;52.276;10.528;2022-09-21T10:39:09;11.07;;;3.33;;
48935;SDS011;34745;52.276;10.528;2022-09-21T10:41:47;15.80;;;3.90;;
48935;SDS011;34745;52.276;10.528;2022-09-21T10:44:21;9.30;;;3.70;;
48935;SDS011;34745;52.276;10.528;2022-09-21T10:46:52;14.60;;;3.47;;
48935;SDS011;34745;52.276;10.528;2022-09-21T10:49:20;12.97;;;2.97;;
48935;SDS011;34745;52.276;10.528;2022-09-21T10:51:50;11.60;;;3.43;;
48935;SDS011;34745;52.276;10.528;2022-09-21T10:54:24;8.30;;;3.27;;
48935;SDS011;34745;52.276;10.528;2022-09-21T10:56:55;12.07;;;3.00;;
48935;SDS011;34745;52.276;10.528;2022-09-21T10:59:27;9.87;;;3.10;;
48935;SDS011;34745;52.276;10.528;2022-09-21T11:01:55;10.40;;;2.37;;
48935;SDS011;34745;52.276;10.528;2022-09-21T11:04:29;9.60;;;2.80;;
48935;SDS011;34745;52.276;10.528;2022-09-21T11:07:04;8.63;;;2.40;;
48935;SDS011;34745;52.276;10.528;2022-09-21T11:09:40;8.07;;;2.10;;
48935;SDS011;34745;52.276;10.528;2022-09-21T11:12:29;4.23;;;1.80;;
48935;SDS011;34745;52.276;10.528;2022-09-21T11:15:08;11.50;;;2.63;;
48935;SDS011;34745;52.276;10.528;2022-09-21T11:17:43;6.67;;;2.63;;
48935;SDS011;34745;52.276;10.528;2022-09-21T11:20:15;8.43;;;2.70;;
48935;SDS011;34745;52.276;10.528;2022-09-21T11:22:58;10.13;;;2.47;;
48935;SDS011;34745;52.276;10.528;2022-09-21T11:25:34;9.67;;;2.30;;
48935;SDS011;34745;52.276;10.528;2022-09-21T11:28:08;5.87;;;2.43;;
48935;SDS011;34745;52.276;10.528;2022-09-21T11:30:45;11.70;;;2.07;;
48935;SDS011;34745;52.276;10.528;2022-09-21T11:33:40;11.37;;;2.27;;
48935;SDS011;34745;52.276;10.528;2022-09-21T11:36:21;6.87;;;1.83;;
48935;SDS011;34745;52.276;10.528;2022-09-21T11:38:59;9.33;;;2.27;;
48935;SDS011;34745;52.276;10.528;2022-09-21T11:41:34;6.03;;;1.47;;
48935;SDS011;34745;52.276;10.528;2022-09-21T11:47:33;4.23;;;1.30;;
48935;SDS011;34745;52.276;10.528;2022-09-21T11:53:17;5.27;;;1.23;;
48935;SDS011;34745;52.276;10.528;2022-09-21T11:56:15;7.50;;;1.77;;
48935;SDS011;34745;52.276;10.528;2022-09-21T11:59:03;15.80;;;6.10;;
48935;SDS011;34745;52.276;10.528;2022-09-21T12:01:44;6.37;;;1.83;;
48935;SDS011;34745;52.276;10.528;2022-09-21T12:04:32;5.57;;;2.20;;
48935;SDS011;34745;52.276;10.528;2022-09-21T12:07:15;7.33;;;1.70;;
48935;SDS011;34745;52.276;10.528;2022-09-21T12:12:47;5.23;;;1.73;;
48935;SDS011;34745;52.276;10.528;2022-09-21T12:15:21;9.60;;;1.70;;
48935;SDS011;34745;52.276;10.528;2022-09-21T12:17:54;4.57;;;1.45;;
48935;SDS011;34745;52.276;10.528;2022-09-21T12:20:30;5.47;;;1.35;;
48935;SDS011;34745;52.276;10.528;2022-09-21T12:23:07;3.75;;;1.00;;
48935;SDS011;34745;52.276;10.528;2022-09-21T12:25:42;7.40;;;1.08;;
48935;SDS011;34745;52.276;10.528;2022-09-21T12:28:13;5.55;;;1.67;;
48935;SDS011;34745;52.276;10.528;2022-09-21T12:30:46;2.08;;;1.00;;
48935;SDS011;34745;52.276;10.528;2022-09-21T12:33:20;4.90;;;1.27;;
48935;SDS011;34745;52.276;10.528;2022-09-21T12:35:57;2.67;;;0.90;;
48935;SDS011;34745;52.276;10.528;2022-09-21T12:38:29;5.32;;;1.35;;
48935;SDS011;34745;52.276;10.528;2022-09-21T12:41:02;3.85;;;1.17;;
48935;SDS011;34745;52.276;10.528;2022-09-21T12:43:43;4.25;;;1.25;;
48935;SDS011;34745;52.276;10.528;2022-09-21T12:46:16;4.20;;;1.45;;
48935;SDS011;34745;52.276;10.528;2022-09-21T12:48:47;5.80;;;2.05;;
48935;SDS011;34745;52.276;10.528;2022-09-21T12:51:16;4.22;;;1.73;;
48935;SDS011;34745;52.276;10.528;2022-09-21T12:53:49;6.30;;;1.52;;
48935;SDS011;34745;52.276;10.528;2022-09-21T12:56:21;5.35;;;1.45;;
48935;SDS011;34745;52.276;10.528;2022-09-21T12:59:05;5.95;;;1.40;;
48935;SDS011;34745;52.276;10.528;2022-09-21T13:01:42;6.80;;;1.67;;
48935;SDS011;34745;52.276;10.528;2022-09-21T13:04:23;6.30;;;1.25;;
48935;SDS011;34745;52.276;10.528;2022-09-21T13:10:16;6.15;;;1.48;;
48935;SDS011;34745;52.276;10.528;2022-09-21T13:12:46;6.03;;;1.20;;
48935;SDS011;34745;52.276;10.528;2022-09-21T13:15:21;3.80;;;1.27;;
48935;SDS011;34745;52.276;10.528;2022-09-21T13:17:56;2.92;;;1.08;;
48935;SDS011;34745;52.276;10.528;2022-09-21T13:20:25;3.35;;;1.20;;
48935;SDS011;34745;52.276;10.528;2022-09-21T13:22:59;3.60;;;1.05;;
48935;SDS011;34745;52.276;10.528;2022-09-21T13:25:27;2.67;;;1.15;;
48935;SDS011;34745;52.276;10.528;2022-09-21T13:28:05;8.85;;;1.50;;
48935;SDS011;34745;52.276;10.528;2022-09-21T13:30:46;6.55;;;1.65;;
48935;SDS011;34745;52.276;10.528;2022-09-21T13:33:28;5.60;;;1.20;;
48935;SDS011;34745;52.276;10.528;2022-09-21T13:36:08;4.03;;;1.13;;
48935;SDS011;34745;52.276;10.528;2022-09-21T13:38:56;2.67;;;1.10;;
48935;SDS011;34745;52.276;10.528;2022-09-21T13:41:38;5.70;;;1.45;;
48935;SDS011;34745;52.276;10.528;2022-09-21T13:44:36;4.72;;;1.10;;
48935;SDS011;34745;52.276;10.528;2022-09-21T13:47:06;3.63;;;1.00;;
48935;SDS011;34745;52.276;10.528;2022-09-21T13:49:39;4.30;;;1.42;;
48935;SDS011;34745;52.276;10.528;2022-09-21T13:52:22;4.75;;;1.20;;
48935;SDS011;34745;52.276;10.528;2022-09-21T13:54:57;3.88;;;1.30;;
48935;SDS011;34745;52.276;10.528;2022-09-21T13:57:28;6.00;;;1.50;;
48935;SDS011;34745;52.276;10.528;2022-09-21T14:03:02;3.58;;;1.20;;
48935;SDS011;34745;52.276;10.528;2022-09-21T14:05:33;8.43;;;1.58;;
48935;SDS011;34745;52.276;10.528;2022-09-21T14:08:05;9.48;;;1.38;;
48935;SDS011;34745;52.276;10.528;2022-09-21T14:10:49;6.68;;;1.33;;
48935;SDS011;34745;52.276;10.528;2022-09-21T14:13:23;6.32;;;1.10;;
48935;SDS011;34745;52.276;10.528;2022-09-21T14:15:53;4.70;;;1.05;;
48935;SDS011;34745;52.276;10.528;2022-09-21T14:18:34;4.60;;;1.40;;
48935;SDS011;34745;52.276;10.528;2022-09-21T14:21:15;2.58;;;1.00;;
48935;SDS011;34745;52.276;10.528;2022-09-21T14:26:54;6.82;;;1.30;;
48935;SDS011;34745;52.276;10.528;2022-09-21T14:29:30;4.22;;;0.90;;
48935;SDS011;34745;52.276;10.528;2022-09-21T14:32:04;4.78;;;1.27;;
48935;SDS011;34745;52.276;10.528;2022-09-21T14:34:39;3.17;;;1.08;;
48935;SDS011;34745;52.276;10.528;2022-09-21T14:37:10;2.50;;;1.05;;
48935;SDS011;34745;52.276;10.528;2022-09-21T14:39:46;2.08;;;0.90;;
48935;SDS011;34745;52.276;10.528;2022-09-21T14:42:18;1.83;;;0.98;;
48935;SDS011;34745;52.276;10.528;2022-09-21T14:44:48;2.13;;;1.00;;
48935;SDS011;34745;52.276;10.528;2022-09-21T14:47:23;1.65;;;0.93;;
48935;SDS011;34745;52.276;10.528;2022-09-21T14:50:22;6.40;;;1.45;;
48935;SDS011;34745;52.276;10.528;2022-09-21T14:59:05;3.55;;;0.90;;
48935;SDS011;34745;52.276;10.528;2022-09-21T15:01:53;3.33;;;1.02;;
48935;SDS011;34745;52.276;10.528;2022-09-21T15:04:28;3.22;;;1.05;;
48935;SDS011;34745;52.276;10.528;2022-09-21T15:07:03;3.72;;;1.27;;
48935;SDS011;34745;52.276;10.528;2022-09-21T15:13:16;8.65;;;1.10;;
48935;SDS011;34745;52.276;10.528;2022-09-21T15:15:58;2.60;;;1.25;;
48935;SDS011;34745;52.276;10.528;2022-09-21T15:18:44;2.78;;;0.90;;
48935;SDS011;34745;52.276;10.528;2022-09-21T15:21:20;2.97;;;1.10;;
48935;SDS011;34745;52.276;10.528;2022-09-21T15:23:49;4.63;;;1.00;;
48935;SDS011;34745;52.276;10.528;2022-09-21T15:26:18;2.90;;;0.80;;